sensor_id;sensor_type;location;lat;lon;timestamp;P1;durP1;ratioP1;P2;durP2;ratioP2
24801;SDS011;12898;50.520;12.152;2022-09-17T00:00:36;5.60;;;3.00;;
24801;SDS011;12898;50.520;12.152;2022-09-17T00:03:03;9.98;;;4.00;;
24801;SDS011;12898;50.520;12.152;2022-09-17T00:05:30;6.45;;;3.40;;
24801;SDS011;12898;50.520;12.152;2022-09-17T00:07:56;5.13;;;3.10;;
24801;SDS011;12898;50.520;12.152;2022-09-17T00:10:22;7.47;;;3.63;;
24801;SDS011;12898;50.520;12.152;2022-09-17T00:12:48;6.45;;;3.40;;
24801;SDS011;12898;50.520;12.152;2022-09-17T00:15:15;10.55;;;4.00;;
24801;SDS011;12898;50.520;12.152;2022-09-17T00:17:41;7.03;;;3.58;;
24801;SDS011;12898;50.520;12.152;2022-09-17T00:20:08;8.13;;;3.65;;
24801;SDS011;12898;50.520;12.152;2022-09-17T00:22:35;7.65;;;4.18;;
24801;SDS011;12898;50.520;12.152;2022-09-17T00:25:02;9.57;;;3.83;;
24801;SDS011;12898;50.520;12.152;2022-09-17T00:27:29;9.43;;;3.78;;
24801;SDS011;12898;50.520;12.152;2022-09-17T00:29:55;10.57;;;3.95;;
24801;SDS011;12898;50.520;12.152;2022-09-17T00:32:20;6.75;;;3.47;;
24801;SDS011;12898;50.520;12.152;2022-09-17T00:34:47;5.93;;;3.35;;
24801;SDS011;12898;50.520;12.152;2022-09-17T00:37:16;6.93;;;3.25;;
24801;SDS011;12898;50.520;12.152;2022-09-17T00:39:43;7.47;;;2.95;;
24801;SDS011;12898;50.520;12.152;2022-09-17T00:42:11;7.35;;;3.10;;
24801;SDS011;12898;50.520;12.152;2022-09-17T00:44:45;7.40;;;3.47;;
24801;SDS011;12898;50.520;12.152;2022-09-17T00:47:23;6.13;;;3.10;;
24801;SDS011;12898;50.520;12.152;2022-09-17T00:50:05;9.27;;;3.63;;
24801;SDS011;12898;50.520;12.152;2022-09-17T00:52:45;6.88;;;2.95;;
24801;SDS011;12898;50.520;12.152;2022-09-17T00:55:23;5.95;;;2.72;;
24801;SDS011;12898;50.520;12.152;2022-09-17T00:57:55;6.38;;;2.90;;
24801;SDS011;12898;50.520;12.152;2022-09-17T01:00:24;9.18;;;3.03;;
24801;SDS011;12898;50.520;12.152;2022-09-17T01:02:51;5.60;;;2.80;;
24801;SDS011;12898;50.520;12.152;2022-09-17T01:05:20;8.05;;;3.35;;
24801;SDS011;12898;50.520;12.152;2022-09-17T01:08:24;6.80;;;3.30;;
24801;SDS011;12898;50.520;12.152;2022-09-17T01:11:14;5.43;;;2.97;;
24801;SDS011;12898;50.520;12.152;2022-09-17T01:14:18;7.57;;;3.50;;
24801;SDS011;12898;50.520;12.152;2022-09-17T01:17:50;9.75;;;3.15;;
24801;SDS011;12898;50.520;12.152;2022-09-17T01:26:19;8.98;;;3.38;;
24801;SDS011;12898;50.520;12.152;2022-09-17T01:35:03;6.72;;;2.45;;
24801;SDS011;12898;50.520;12.152;2022-09-17T01:37:35;8.50;;;3.20;;
24801;SDS011;12898;50.520;12.152;2022-09-17T01:40:25;8.88;;;2.72;;
24801;SDS011;12898;50.520;12.152;2022-09-17T01:45:54;5.63;;;2.72;;
24801;SDS011;12898;50.520;12.152;2022-09-17T01:48:33;5.32;;;2.63;;
24801;SDS011;12898;50.520;12.152;2022-09-17T01:51:08;5.35;;;3.03;;
24801;SDS011;12898;50.520;12.152;2022-09-17T01:53:46;9.32;;;3.38;;
24801;SDS011;12898;50.520;12.152;2022-09-17T01:56:41;5.90;;;2.80;;
24801;SDS011;12898;50.520;12.152;2022-09-17T01:59:20;6.75;;;3.03;;
24801;SDS011;12898;50.520;12.152;2022-09-17T02:02:09;8.40;;;3.20;;
24801;SDS011;12898;50.520;12.152;2022-09-17T02:04:42;8.48;;;3.25;;
24801;SDS011;12898;50.520;12.152;2022-09-17T02:07:17;7.00;;;3.60;;
24801;SDS011;12898;50.520;12.152;2022-09-17T02:10:18;8.88;;;3.67;;
24801;SDS011;12898;50.520;12.152;2022-09-17T02:12:45;6.40;;;3.00;;
24801;SDS011;12898;50.520;12.152;2022-09-17T02:15:27;6.45;;;3.53;;
24801;SDS011;12898;50.520;12.152;2022-09-17T02:20:52;7.65;;;3.60;;
24801;SDS011;12898;50.520;12.152;2022-09-17T02:23:54;10.98;;;4.30;;
24801;SDS011;12898;50.520;12.152;2022-09-17T02:26:30;9.70;;;3.90;;
24801;SDS011;12898;50.520;12.152;2022-09-17T02:29:01;7.70;;;4.38;;
24801;SDS011;12898;50.520;12.152;2022-09-17T02:31:35;10.07;;;4.20;;
24801;SDS011;12898;50.520;12.152;2022-09-17T02:34:01;8.82;;;4.13;;
24801;SDS011;12898;50.520;12.152;2022-09-17T02:36:29;10.00;;;4.28;;
24801;SDS011;12898;50.520;12.152;2022-09-17T02:38:59;7.75;;;4.13;;
24801;SDS011;12898;50.520;12.152;2022-09-17T02:41:35;9.88;;;4.53;;
24801;SDS011;12898;50.520;12.152;2022-09-17T03:00:03;8.65;;;5.30;;
24801;SDS011;12898;50.520;12.152;2022-09-17T03:02:41;12.82;;;5.25;;
24801;SDS011;12898;50.520;12.152;2022-09-17T03:05:31;8.88;;;5.07;;
24801;SDS011;12898;50.520;12.152;2022-09-17T03:08:00;11.73;;;5.45;;
24801;SDS011;12898;50.520;12.152;2022-09-17T03:10:26;8.82;;;4.85;;
24801;SDS011;12898;50.520;12.152;2022-09-17T03:12:57;12.23;;;6.10;;
24801;SDS011;12898;50.520;12.152;2022-09-17T03:15:23;12.25;;;6.47;;
24801;SDS011;12898;50.520;12.152;2022-09-17T03:17:49;12.98;;;5.70;;
24801;SDS011;12898;50.520;12.152;2022-09-17T03:20:15;10.15;;;5.15;;
24801;SDS011;12898;50.520;12.152;2022-09-17T03:22:41;12.68;;;5.90;;
24801;SDS011;12898;50.520;12.152;2022-09-17T03:25:07;9.95;;;5.43;;
24801;SDS011;12898;50.520;12.152;2022-09-17T03:27:33;9.82;;;5.88;;
24801;SDS011;12898;50.520;12.152;2022-09-17T03:29:59;13.07;;;7.07;;
24801;SDS011;12898;50.520;12.152;2022-09-17T03:32:25;11.15;;;5.38;;
24801;SDS011;12898;50.520;12.152;2022-09-17T03:34:51;10.48;;;5.53;;
24801;SDS011;12898;50.520;12.152;2022-09-17T03:37:18;8.25;;;5.53;;
24801;SDS011;12898;50.520;12.152;2022-09-17T03:39:44;9.27;;;5.53;;
24801;SDS011;12898;50.520;12.152;2022-09-17T03:42:10;9.95;;;5.20;;
24801;SDS011;12898;50.520;12.152;2022-09-17T03:44:35;9.95;;;5.65;;
24801;SDS011;12898;50.520;12.152;2022-09-17T03:47:01;10.02;;;5.47;;
24801;SDS011;12898;50.520;12.152;2022-09-17T03:49:27;7.95;;;5.22;;
24801;SDS011;12898;50.520;12.152;2022-09-17T03:51:53;10.27;;;5.13;;
24801;SDS011;12898;50.520;12.152;2022-09-17T03:54:18;7.78;;;5.00;;
24801;SDS011;12898;50.520;12.152;2022-09-17T03:56:44;8.68;;;5.25;;
24801;SDS011;12898;50.520;12.152;2022-09-17T03:59:10;8.90;;;5.07;;
24801;SDS011;12898;50.520;12.152;2022-09-17T04:01:35;7.63;;;4.82;;
24801;SDS011;12898;50.520;12.152;2022-09-17T04:04:01;14.18;;;6.78;;
24801;SDS011;12898;50.520;12.152;2022-09-17T04:06:28;10.75;;;5.07;;
24801;SDS011;12898;50.520;12.152;2022-09-17T04:08:53;6.15;;;4.38;;
24801;SDS011;12898;50.520;12.152;2022-09-17T04:11:20;8.57;;;4.70;;
24801;SDS011;12898;50.520;12.152;2022-09-17T04:13:47;8.10;;;4.65;;
24801;SDS011;12898;50.520;12.152;2022-09-17T04:16:12;7.60;;;4.82;;
24801;SDS011;12898;50.520;12.152;2022-09-17T04:18:38;9.00;;;4.60;;
24801;SDS011;12898;50.520;12.152;2022-09-17T04:21:04;8.32;;;4.20;;
24801;SDS011;12898;50.520;12.152;2022-09-17T04:23:30;8.52;;;4.68;;
24801;SDS011;12898;50.520;12.152;2022-09-17T04:25:56;6.78;;;3.97;;
24801;SDS011;12898;50.520;12.152;2022-09-17T04:28:22;8.15;;;4.38;;
24801;SDS011;12898;50.520;12.152;2022-09-17T04:30:48;8.63;;;4.75;;
24801;SDS011;12898;50.520;12.152;2022-09-17T04:33:14;8.55;;;4.65;;
24801;SDS011;12898;50.520;12.152;2022-09-17T04:35:39;6.88;;;4.13;;
24801;SDS011;12898;50.520;12.152;2022-09-17T04:38:05;4.88;;;3.42;;
24801;SDS011;12898;50.520;12.152;2022-09-17T04:40:31;6.57;;;3.47;;
24801;SDS011;12898;50.520;12.152;2022-09-17T04:42:57;4.32;;;2.97;;
24801;SDS011;12898;50.520;12.152;2022-09-17T04:45:26;4.60;;;3.38;;
24801;SDS011;12898;50.520;12.152;2022-09-17T04:47:54;6.32;;;3.70;;
24801;SDS011;12898;50.520;12.152;2022-09-17T04:50:20;7.82;;;3.85;;
24801;SDS011;12898;50.520;12.152;2022-09-17T04:52:46;4.20;;;3.20;;
24801;SDS011;12898;50.520;12.152;2022-09-17T04:55:13;7.15;;;3.67;;
24801;SDS011;12898;50.520;12.152;2022-09-17T04:57:46;5.97;;;3.42;;
24801;SDS011;12898;50.520;12.152;2022-09-17T05:00:14;6.05;;;3.45;;
24801;SDS011;12898;50.520;12.152;2022-09-17T05:02:42;4.70;;;2.80;;
24801;SDS011;12898;50.520;12.152;2022-09-17T05:05:09;3.85;;;2.83;;
24801;SDS011;12898;50.520;12.152;2022-09-17T05:07:38;4.65;;;2.50;;
24801;SDS011;12898;50.520;12.152;2022-09-17T05:10:05;9.13;;;2.58;;
24801;SDS011;12898;50.520;12.152;2022-09-17T05:12:32;4.10;;;2.05;;
24801;SDS011;12898;50.520;12.152;2022-09-17T05:14:59;3.35;;;2.00;;
24801;SDS011;12898;50.520;12.152;2022-09-17T05:17:24;6.05;;;1.85;;
24801;SDS011;12898;50.520;12.152;2022-09-17T05:19:50;3.53;;;2.00;;
24801;SDS011;12898;50.520;12.152;2022-09-17T05:22:17;7.32;;;2.28;;
24801;SDS011;12898;50.520;12.152;2022-09-17T05:24:44;4.10;;;2.20;;
24801;SDS011;12898;50.520;12.152;2022-09-17T05:27:09;4.03;;;1.70;;
24801;SDS011;12898;50.520;12.152;2022-09-17T05:29:35;3.97;;;1.63;;
24801;SDS011;12898;50.520;12.152;2022-09-17T05:32:01;3.35;;;1.70;;
24801;SDS011;12898;50.520;12.152;2022-09-17T05:34:28;3.10;;;1.52;;
24801;SDS011;12898;50.520;12.152;2022-09-17T05:36:54;4.63;;;1.83;;
24801;SDS011;12898;50.520;12.152;2022-09-17T05:39:19;2.10;;;1.60;;
24801;SDS011;12898;50.520;12.152;2022-09-17T05:41:49;1.98;;;1.60;;
24801;SDS011;12898;50.520;12.152;2022-09-17T05:44:19;2.53;;;1.70;;
24801;SDS011;12898;50.520;12.152;2022-09-17T05:46:45;2.75;;;1.90;;
24801;SDS011;12898;50.520;12.152;2022-09-17T05:49:14;3.55;;;2.00;;
24801;SDS011;12898;50.520;12.152;2022-09-17T05:51:40;4.13;;;1.60;;
24801;SDS011;12898;50.520;12.152;2022-09-17T05:54:06;1.90;;;1.38;;
24801;SDS011;12898;50.520;12.152;2022-09-17T05:56:32;2.75;;;1.63;;
24801;SDS011;12898;50.520;12.152;2022-09-17T05:58:58;1.73;;;1.50;;
24801;SDS011;12898;50.520;12.152;2022-09-17T06:01:24;3.33;;;1.70;;
24801;SDS011;12898;50.520;12.152;2022-09-17T06:03:49;2.13;;;1.38;;
24801;SDS011;12898;50.520;12.152;2022-09-17T06:06:15;4.90;;;1.75;;
24801;SDS011;12898;50.520;12.152;2022-09-17T06:08:41;1.73;;;1.45;;
24801;SDS011;12898;50.520;12.152;2022-09-17T06:11:07;2.22;;;1.60;;
24801;SDS011;12898;50.520;12.152;2022-09-17T06:13:33;2.25;;;1.10;;
24801;SDS011;12898;50.520;12.152;2022-09-17T06:16:00;3.05;;;1.33;;
24801;SDS011;12898;50.520;12.152;2022-09-17T06:18:27;4.55;;;1.40;;
24801;SDS011;12898;50.520;12.152;2022-09-17T06:20:58;1.33;;;0.93;;
24801;SDS011;12898;50.520;12.152;2022-09-17T06:23:26;2.15;;;0.95;;
24801;SDS011;12898;50.520;12.152;2022-09-17T06:25:55;2.22;;;1.10;;
24801;SDS011;12898;50.520;12.152;2022-09-17T06:28:23;3.53;;;1.10;;
24801;SDS011;12898;50.520;12.152;2022-09-17T06:30:50;1.70;;;1.00;;
24801;SDS011;12898;50.520;12.152;2022-09-17T06:33:18;2.50;;;0.93;;
24801;SDS011;12898;50.520;12.152;2022-09-17T06:35:45;2.15;;;1.00;;
24801;SDS011;12898;50.520;12.152;2022-09-17T06:38:11;4.80;;;1.10;;
24801;SDS011;12898;50.520;12.152;2022-09-17T06:40:37;5.88;;;1.25;;
24801;SDS011;12898;50.520;12.152;2022-09-17T06:43:02;2.92;;;1.60;;
24801;SDS011;12898;50.520;12.152;2022-09-17T06:45:28;5.75;;;1.33;;
24801;SDS011;12898;50.520;12.152;2022-09-17T06:47:54;3.85;;;1.08;;
24801;SDS011;12898;50.520;12.152;2022-09-17T06:50:20;2.17;;;1.00;;
24801;SDS011;12898;50.520;12.152;2022-09-17T06:52:50;5.72;;;1.25;;
24801;SDS011;12898;50.520;12.152;2022-09-17T06:55:17;6.28;;;1.40;;
24801;SDS011;12898;50.520;12.152;2022-09-17T06:57:44;1.35;;;1.00;;
24801;SDS011;12898;50.520;12.152;2022-09-17T07:00:10;4.50;;;1.13;;
24801;SDS011;12898;50.520;12.152;2022-09-17T07:02:38;4.30;;;1.20;;
24801;SDS011;12898;50.520;12.152;2022-09-17T07:05:04;3.28;;;1.30;;
24801;SDS011;12898;50.520;12.152;2022-09-17T07:07:31;2.80;;;1.60;;
24801;SDS011;12898;50.520;12.152;2022-09-17T07:09:58;2.63;;;1.38;;
24801;SDS011;12898;50.520;12.152;2022-09-17T07:12:24;3.80;;;1.73;;
24801;SDS011;12898;50.520;12.152;2022-09-17T07:14:50;4.90;;;1.10;;
24801;SDS011;12898;50.520;12.152;2022-09-17T07:17:16;4.95;;;1.55;;
24801;SDS011;12898;50.520;12.152;2022-09-17T07:19:42;9.75;;;2.00;;
24801;SDS011;12898;50.520;12.152;2022-09-17T07:22:08;6.40;;;1.45;;
24801;SDS011;12898;50.520;12.152;2022-09-17T07:24:33;7.43;;;1.60;;
24801;SDS011;12898;50.520;12.152;2022-09-17T07:26:59;3.70;;;1.30;;
24801;SDS011;12898;50.520;12.152;2022-09-17T07:29:25;7.47;;;1.48;;
24801;SDS011;12898;50.520;12.152;2022-09-17T07:31:52;6.43;;;1.50;;
24801;SDS011;12898;50.520;12.152;2022-09-17T07:34:18;7.13;;;1.30;;
24801;SDS011;12898;50.520;12.152;2022-09-17T07:36:44;7.18;;;1.27;;
24801;SDS011;12898;50.520;12.152;2022-09-17T07:39:10;9.48;;;2.08;;
24801;SDS011;12898;50.520;12.152;2022-09-17T07:41:37;9.60;;;1.60;;
24801;SDS011;12898;50.520;12.152;2022-09-17T07:44:04;7.47;;;1.40;;
24801;SDS011;12898;50.520;12.152;2022-09-17T07:46:31;4.70;;;1.40;;
24801;SDS011;12898;50.520;12.152;2022-09-17T07:48:57;7.30;;;2.00;;
24801;SDS011;12898;50.520;12.152;2022-09-17T07:51:24;10.25;;;1.70;;
24801;SDS011;12898;50.520;12.152;2022-09-17T07:53:54;7.72;;;1.58;;
24801;SDS011;12898;50.520;12.152;2022-09-17T07:56:23;11.15;;;1.58;;
24801;SDS011;12898;50.520;12.152;2022-09-17T07:58:50;8.20;;;1.63;;
24801;SDS011;12898;50.520;12.152;2022-09-17T08:01:16;7.57;;;1.63;;
24801;SDS011;12898;50.520;12.152;2022-09-17T08:03:48;6.95;;;1.48;;
24801;SDS011;12898;50.520;12.152;2022-09-17T08:06:18;7.00;;;1.42;;
24801;SDS011;12898;50.520;12.152;2022-09-17T08:08:46;4.32;;;1.42;;
24801;SDS011;12898;50.520;12.152;2022-09-17T08:11:23;8.35;;;1.35;;
24801;SDS011;12898;50.520;12.152;2022-09-17T08:13:51;7.38;;;1.95;;
24801;SDS011;12898;50.520;12.152;2022-09-17T08:16:18;4.28;;;1.67;;
24801;SDS011;12898;50.520;12.152;2022-09-17T08:18:45;9.10;;;1.50;;
24801;SDS011;12898;50.520;12.152;2022-09-17T08:21:13;4.82;;;1.50;;
24801;SDS011;12898;50.520;12.152;2022-09-17T08:23:43;4.60;;;1.20;;
24801;SDS011;12898;50.520;12.152;2022-09-17T08:26:13;5.20;;;1.40;;
24801;SDS011;12898;50.520;12.152;2022-09-17T08:28:53;5.85;;;1.38;;
24801;SDS011;12898;50.520;12.152;2022-09-17T08:31:20;8.95;;;1.38;;
24801;SDS011;12898;50.520;12.152;2022-09-17T08:33:48;7.78;;;1.10;;
24801;SDS011;12898;50.520;12.152;2022-09-17T08:36:15;12.77;;;1.58;;
24801;SDS011;12898;50.520;12.152;2022-09-17T08:38:42;4.78;;;0.93;;
24801;SDS011;12898;50.520;12.152;2022-09-17T08:46:31;9.15;;;1.50;;
24801;SDS011;12898;50.520;12.152;2022-09-17T08:57:28;9.25;;;1.40;;
24801;SDS011;12898;50.520;12.152;2022-09-17T09:00:23;9.00;;;1.65;;
24801;SDS011;12898;50.520;12.152;2022-09-17T09:06:13;5.47;;;1.23;;
24801;SDS011;12898;50.520;12.152;2022-09-17T09:08:41;7.97;;;1.80;;
24801;SDS011;12898;50.520;12.152;2022-09-17T09:11:15;8.20;;;2.03;;
24801;SDS011;12898;50.520;12.152;2022-09-17T09:13:51;12.52;;;2.13;;
24801;SDS011;12898;50.520;12.152;2022-09-17T09:16:41;7.32;;;1.75;;
24801;SDS011;12898;50.520;12.152;2022-09-17T09:19:44;7.63;;;1.33;;
24801;SDS011;12898;50.520;12.152;2022-09-17T09:27:40;6.57;;;1.80;;
24801;SDS011;12898;50.520;12.152;2022-09-17T09:30:14;7.07;;;1.65;;
24801;SDS011;12898;50.520;12.152;2022-09-17T09:32:54;8.68;;;2.05;;
24801;SDS011;12898;50.520;12.152;2022-09-17T09:38:03;8.88;;;2.25;;
24801;SDS011;12898;50.520;12.152;2022-09-17T09:41:13;10.25;;;1.83;;
24801;SDS011;12898;50.520;12.152;2022-09-17T09:43:46;11.48;;;2.08;;
24801;SDS011;12898;50.520;12.152;2022-09-17T09:49:07;9.02;;;1.70;;
24801;SDS011;12898;50.520;12.152;2022-09-17T09:52:17;10.35;;;1.70;;
24801;SDS011;12898;50.520;12.152;2022-09-17T09:58:11;8.25;;;1.38;;
24801;SDS011;12898;50.520;12.152;2022-09-17T10:01:00;13.05;;;2.58;;
24801;SDS011;12898;50.520;12.152;2022-09-17T10:03:27;8.88;;;1.92;;
24801;SDS011;12898;50.520;12.152;2022-09-17T10:05:57;13.93;;;2.05;;
24801;SDS011;12898;50.520;12.152;2022-09-17T10:08:34;14.32;;;2.33;;
24801;SDS011;12898;50.520;12.152;2022-09-17T10:11:13;10.82;;;1.98;;
24801;SDS011;12898;50.520;12.152;2022-09-17T10:13:47;8.23;;;1.60;;
24801;SDS011;12898;50.520;12.152;2022-09-17T10:16:20;10.18;;;2.42;;
24801;SDS011;12898;50.520;12.152;2022-09-17T10:21:41;8.88;;;1.75;;
24801;SDS011;12898;50.520;12.152;2022-09-17T10:24:19;11.82;;;2.17;;
24801;SDS011;12898;50.520;12.152;2022-09-17T10:27:06;9.70;;;1.63;;
24801;SDS011;12898;50.520;12.152;2022-09-17T10:29:45;9.55;;;1.70;;
24801;SDS011;12898;50.520;12.152;2022-09-17T10:32:17;9.18;;;1.60;;
24801;SDS011;12898;50.520;12.152;2022-09-17T10:35:03;11.70;;;2.63;;
24801;SDS011;12898;50.520;12.152;2022-09-17T10:40:32;13.45;;;2.08;;
24801;SDS011;12898;50.520;12.152;2022-09-17T10:45:36;10.55;;;1.92;;
24801;SDS011;12898;50.520;12.152;2022-09-17T10:48:11;8.75;;;1.55;;
24801;SDS011;12898;50.520;12.152;2022-09-17T10:50:47;4.25;;;0.90;;
24801;SDS011;12898;50.520;12.152;2022-09-17T10:53:17;6.15;;;1.50;;
24801;SDS011;12898;50.520;12.152;2022-09-17T11:02:01;9.63;;;2.10;;
24801;SDS011;12898;50.520;12.152;2022-09-17T11:04:59;8.32;;;1.60;;
24801;SDS011;12898;50.520;12.152;2022-09-17T11:10:36;7.88;;;1.60;;
24801;SDS011;12898;50.520;12.152;2022-09-17T11:13:32;9.95;;;1.90;;
24801;SDS011;12898;50.520;12.152;2022-09-17T11:16:14;8.10;;;1.60;;
24801;SDS011;12898;50.520;12.152;2022-09-17T11:28:23;8.73;;;1.50;;
24801;SDS011;12898;50.520;12.152;2022-09-17T11:31:07;9.88;;;1.67;;
24801;SDS011;12898;50.520;12.152;2022-09-17T11:37:13;12.13;;;2.20;;
24801;SDS011;12898;50.520;12.152;2022-09-17T11:39:59;8.00;;;1.52;;
24801;SDS011;12898;50.520;12.152;2022-09-17T11:42:45;9.88;;;1.70;;
24801;SDS011;12898;50.520;12.152;2022-09-17T11:45:22;11.73;;;2.10;;
24801;SDS011;12898;50.520;12.152;2022-09-17T11:47:56;11.05;;;1.77;;
24801;SDS011;12898;50.520;12.152;2022-09-17T11:50:43;9.23;;;1.88;;
24801;SDS011;12898;50.520;12.152;2022-09-17T11:53:17;8.77;;;1.90;;
24801;SDS011;12898;50.520;12.152;2022-09-17T11:56:00;8.52;;;1.60;;
24801;SDS011;12898;50.520;12.152;2022-09-17T11:58:43;10.85;;;1.88;;
24801;SDS011;12898;50.520;12.152;2022-09-17T12:01:37;9.20;;;2.53;;
24801;SDS011;12898;50.520;12.152;2022-09-17T12:04:15;12.23;;;2.25;;
24801;SDS011;12898;50.520;12.152;2022-09-17T12:07:22;10.13;;;2.08;;
24801;SDS011;12898;50.520;12.152;2022-09-17T12:19:26;9.48;;;2.10;;
24801;SDS011;12898;50.520;12.152;2022-09-17T12:22:08;19.13;;;5.88;;
24801;SDS011;12898;50.520;12.152;2022-09-17T12:24:50;13.40;;;3.35;;
24801;SDS011;12898;50.520;12.152;2022-09-17T12:30:05;10.50;;;2.10;;
24801;SDS011;12898;50.520;12.152;2022-09-17T12:38:59;7.78;;;1.73;;
24801;SDS011;12898;50.520;12.152;2022-09-17T12:41:46;4.93;;;1.45;;
24801;SDS011;12898;50.520;12.152;2022-09-17T12:50:06;6.70;;;1.83;;
24801;SDS011;12898;50.520;12.152;2022-09-17T12:59:17;9.73;;;1.63;;
24801;SDS011;12898;50.520;12.152;2022-09-17T13:02:01;7.72;;;1.80;;
24801;SDS011;12898;50.520;12.152;2022-09-17T13:07:47;8.57;;;1.52;;
24801;SDS011;12898;50.520;12.152;2022-09-17T13:22:27;5.97;;;1.05;;
24801;SDS011;12898;50.520;12.152;2022-09-17T13:25:16;6.68;;;1.45;;
24801;SDS011;12898;50.520;12.152;2022-09-17T13:27:44;5.00;;;1.60;;
24801;SDS011;12898;50.520;12.152;2022-09-17T13:30:15;13.60;;;1.95;;
24801;SDS011;12898;50.520;12.152;2022-09-17T13:32:44;9.13;;;1.95;;
24801;SDS011;12898;50.520;12.152;2022-09-17T13:40:20;7.07;;;2.03;;
24801;SDS011;12898;50.520;12.152;2022-09-17T13:43:12;3.30;;;1.20;;
24801;SDS011;12898;50.520;12.152;2022-09-17T13:48:28;2.88;;;0.98;;
24801;SDS011;12898;50.520;12.152;2022-09-17T13:50:56;5.88;;;1.20;;
24801;SDS011;12898;50.520;12.152;2022-09-17T13:53:54;5.30;;;1.02;;
24801;SDS011;12898;50.520;12.152;2022-09-17T13:56:29;7.13;;;1.27;;
24801;SDS011;12898;50.520;12.152;2022-09-17T13:59:14;7.25;;;1.08;;
24801;SDS011;12898;50.520;12.152;2022-09-17T14:04:55;6.07;;;1.30;;
24801;SDS011;12898;50.520;12.152;2022-09-17T14:08:08;6.10;;;1.63;;
24801;SDS011;12898;50.520;12.152;2022-09-17T14:10:41;5.50;;;1.27;;
24801;SDS011;12898;50.520;12.152;2022-09-17T14:13:50;5.50;;;1.23;;
24801;SDS011;12898;50.520;12.152;2022-09-17T14:16:43;11.73;;;2.10;;
24801;SDS011;12898;50.520;12.152;2022-09-17T14:35:44;7.25;;;1.30;;
24801;SDS011;12898;50.520;12.152;2022-09-17T14:43:47;5.28;;;1.20;;
24801;SDS011;12898;50.520;12.152;2022-09-17T14:49:39;5.80;;;1.50;;
24801;SDS011;12898;50.520;12.152;2022-09-17T14:52:18;7.25;;;1.48;;
24801;SDS011;12898;50.520;12.152;2022-09-17T14:57:45;5.22;;;1.33;;
24801;SDS011;12898;50.520;12.152;2022-09-17T15:00:19;5.78;;;1.50;;
24801;SDS011;12898;50.520;12.152;2022-09-17T15:02:50;8.90;;;1.20;;
24801;SDS011;12898;50.520;12.152;2022-09-17T15:05:24;4.68;;;1.00;;
24801;SDS011;12898;50.520;12.152;2022-09-17T15:08:11;4.07;;;1.02;;
24801;SDS011;12898;50.520;12.152;2022-09-17T15:10:49;8.85;;;1.08;;
24801;SDS011;12898;50.520;12.152;2022-09-17T15:13:29;7.25;;;1.20;;
24801;SDS011;12898;50.520;12.152;2022-09-17T15:18:46;5.32;;;1.23;;
24801;SDS011;12898;50.520;12.152;2022-09-17T15:21:24;4.50;;;1.30;;
24801;SDS011;12898;50.520;12.152;2022-09-17T15:27:12;4.85;;;1.20;;
24801;SDS011;12898;50.520;12.152;2022-09-17T15:29:46;3.78;;;1.17;;
24801;SDS011;12898;50.520;12.152;2022-09-17T15:32:16;6.05;;;1.38;;
24801;SDS011;12898;50.520;12.152;2022-09-17T15:34:42;3.03;;;1.10;;
24801;SDS011;12898;50.520;12.152;2022-09-17T15:37:17;3.40;;;1.00;;
24801;SDS011;12898;50.520;12.152;2022-09-17T15:39:46;6.07;;;1.23;;
24801;SDS011;12898;50.520;12.152;2022-09-17T15:45:26;4.53;;;1.10;;
24801;SDS011;12898;50.520;12.152;2022-09-17T15:47:59;3.13;;;0.90;;
24801;SDS011;12898;50.520;12.152;2022-09-17T15:50:33;3.22;;;0.75;;
24801;SDS011;12898;50.520;12.152;2022-09-17T15:55:42;5.43;;;1.00;;
24801;SDS011;12898;50.520;12.152;2022-09-17T15:58:19;3.63;;;1.45;;
24801;SDS011;12898;50.520;12.152;2022-09-17T16:08:42;10.60;;;1.55;;
24801;SDS011;12898;50.520;12.152;2022-09-17T16:11:11;5.30;;;1.17;;
24801;SDS011;12898;50.520;12.152;2022-09-17T16:13:41;6.97;;;1.40;;
24801;SDS011;12898;50.520;12.152;2022-09-17T16:16:08;7.00;;;1.25;;
24801;SDS011;12898;50.520;12.152;2022-09-17T16:18:40;6.50;;;1.40;;
24801;SDS011;12898;50.520;12.152;2022-09-17T16:21:07;4.22;;;1.17;;
24801;SDS011;12898;50.520;12.152;2022-09-17T16:23:37;14.05;;;1.77;;
24801;SDS011;12898;50.520;12.152;2022-09-17T16:26:03;4.57;;;1.55;;
24801;SDS011;12898;50.520;12.152;2022-09-17T16:28:30;4.88;;;1.20;;
24801;SDS011;12898;50.520;12.152;2022-09-17T16:30:57;4.57;;;0.95;;
24801;SDS011;12898;50.520;12.152;2022-09-17T16:33:23;2.10;;;0.77;;
24801;SDS011;12898;50.520;12.152;2022-09-17T16:35:52;2.83;;;0.70;;
24801;SDS011;12898;50.520;12.152;2022-09-17T16:38:22;3.15;;;0.82;;
24801;SDS011;12898;50.520;12.152;2022-09-17T16:40:47;2.00;;;0.50;;
24801;SDS011;12898;50.520;12.152;2022-09-17T16:43:15;4.15;;;0.85;;
24801;SDS011;12898;50.520;12.152;2022-09-17T16:45:42;2.17;;;0.60;;
24801;SDS011;12898;50.520;12.152;2022-09-17T16:48:09;2.17;;;0.60;;
24801;SDS011;12898;50.520;12.152;2022-09-17T16:50:37;3.25;;;0.93;;
24801;SDS011;12898;50.520;12.152;2022-09-17T16:53:05;1.77;;;0.63;;
24801;SDS011;12898;50.520;12.152;2022-09-17T16:55:31;3.50;;;0.95;;
24801;SDS011;12898;50.520;12.152;2022-09-17T16:57:57;0.98;;;0.60;;
24801;SDS011;12898;50.520;12.152;2022-09-17T17:00:22;2.50;;;0.75;;
24801;SDS011;12898;50.520;12.152;2022-09-17T17:02:52;2.92;;;1.13;;
24801;SDS011;12898;50.520;12.152;2022-09-17T17:05:20;7.10;;;1.38;;
24801;SDS011;12898;50.520;12.152;2022-09-17T17:07:47;2.88;;;1.38;;
24801;SDS011;12898;50.520;12.152;2022-09-17T17:10:14;3.53;;;1.27;;
24801;SDS011;12898;50.520;12.152;2022-09-17T17:12:40;3.97;;;1.17;;
24801;SDS011;12898;50.520;12.152;2022-09-17T17:15:06;3.70;;;1.40;;
24801;SDS011;12898;50.520;12.152;2022-09-17T17:17:36;2.70;;;1.10;;
24801;SDS011;12898;50.520;12.152;2022-09-17T17:20:02;4.10;;;1.20;;
24801;SDS011;12898;50.520;12.152;2022-09-17T17:22:34;6.13;;;1.15;;
24801;SDS011;12898;50.520;12.152;2022-09-17T17:25:02;1.73;;;1.02;;
24801;SDS011;12898;50.520;12.152;2022-09-17T17:27:30;1.98;;;1.10;;
24801;SDS011;12898;50.520;12.152;2022-09-17T17:29:56;4.32;;;1.48;;
24801;SDS011;12898;50.520;12.152;2022-09-17T17:32:21;5.05;;;1.50;;
24801;SDS011;12898;50.520;12.152;2022-09-17T17:34:47;3.90;;;1.30;;
24801;SDS011;12898;50.520;12.152;2022-09-17T17:37:14;2.97;;;1.63;;
24801;SDS011;12898;50.520;12.152;2022-09-17T17:39:41;4.28;;;1.30;;
24801;SDS011;12898;50.520;12.152;2022-09-17T17:42:07;3.50;;;1.30;;
24801;SDS011;12898;50.520;12.152;2022-09-17T17:44:32;2.38;;;1.33;;
24801;SDS011;12898;50.520;12.152;2022-09-17T17:46:58;2.67;;;1.50;;
24801;SDS011;12898;50.520;12.152;2022-09-17T17:49:24;3.22;;;1.30;;
24801;SDS011;12898;50.520;12.152;2022-09-17T17:51:49;3.05;;;1.58;;
24801;SDS011;12898;50.520;12.152;2022-09-17T17:54:17;7.70;;;2.45;;
24801;SDS011;12898;50.520;12.152;2022-09-17T17:56:43;5.30;;;2.13;;
24801;SDS011;12898;50.520;12.152;2022-09-17T17:59:09;6.65;;;2.20;;
24801;SDS011;12898;50.520;12.152;2022-09-17T18:01:35;6.68;;;2.20;;
24801;SDS011;12898;50.520;12.152;2022-09-17T18:04:02;7.75;;;2.13;;
24801;SDS011;12898;50.520;12.152;2022-09-17T18:06:31;5.78;;;2.15;;
24801;SDS011;12898;50.520;12.152;2022-09-17T18:08:57;3.35;;;1.70;;
24801;SDS011;12898;50.520;12.152;2022-09-17T18:11:23;5.53;;;1.90;;
24801;SDS011;12898;50.520;12.152;2022-09-17T18:13:50;5.60;;;1.90;;
24801;SDS011;12898;50.520;12.152;2022-09-17T18:16:18;6.00;;;1.70;;
24801;SDS011;12898;50.520;12.152;2022-09-17T18:18:47;6.05;;;2.00;;
24801;SDS011;12898;50.520;12.152;2022-09-17T18:21:15;5.57;;;1.92;;